createdAt,value
2022-12-12T00:00:36.173Z,24.00
2022-12-12T00:01:36.148Z,22.90
2022-12-12T00:02:36.222Z,21.90
2022-12-12T00:03:36.248Z,22.50
2022-12-12T00:04:36.122Z,22.60
2022-12-12T00:05:36.129Z,21.50
2022-12-12T00:06:36.166Z,20.90
2022-12-12T00:07:36.091Z,20.20
2022-12-12T00:08:36.078Z,21.10
2022-12-12T00:09:36.065Z,21.80
2022-12-12T00:10:36.083Z,21.00
2022-12-12T00:11:36.054Z,20.30
2022-12-12T00:12:36.034Z,21.40
2022-12-12T00:13:36.025Z,21.90
2022-12-12T00:14:36.018Z,21.10
2022-12-12T00:15:36.085Z,21.10
2022-12-12T00:16:35.998Z,21.20
2022-12-12T00:17:37.002Z,21.70
2022-12-12T00:18:36.990Z,21.70
2022-12-12T00:19:35.985Z,22.30
2022-12-12T00:20:35.962Z,22.50
2022-12-12T00:21:35.958Z,21.90
2022-12-12T00:22:35.965Z,20.90
2022-12-12T00:23:35.936Z,21.70
2022-12-12T00:24:35.921Z,21.30
2022-12-12T00:25:35.932Z,20.60
2022-12-12T00:26:41.172Z,21.10
2022-12-12T00:27:36.918Z,19.70
2022-12-12T00:28:35.907Z,20.40
2022-12-12T00:29:35.893Z,20.40
2022-12-12T00:30:35.872Z,19.80
2022-12-12T00:31:35.974Z,21.10
2022-12-12T00:32:35.872Z,20.30
2022-12-12T00:33:35.827Z,19.70
2022-12-12T00:34:36.831Z,20.90
2022-12-12T00:35:35.817Z,20.40
2022-12-12T00:36:35.817Z,20.30
2022-12-12T00:37:35.848Z,20.30
2022-12-12T00:38:35.789Z,20.10
2022-12-12T00:39:35.773Z,20.00
2022-12-12T00:40:35.772Z,19.80
2022-12-12T00:41:35.754Z,20.40
2022-12-12T00:42:35.773Z,20.40
2022-12-12T00:43:35.770Z,20.80
2022-12-12T00:44:35.735Z,19.70
2022-12-12T00:45:35.714Z,19.60
2022-12-12T00:46:35.750Z,19.20
2022-12-12T00:47:35.692Z,19.30
2022-12-12T00:48:35.717Z,20.30
2022-12-12T00:49:35.698Z,20.00
2022-12-12T00:50:35.693Z,21.00
2022-12-12T00:51:35.666Z,19.60
2022-12-12T00:52:35.649Z,20.40
2022-12-12T00:53:36.664Z,18.50
2022-12-12T00:54:35.646Z,19.80
2022-12-12T00:55:35.622Z,19.00
2022-12-12T00:56:35.618Z,18.80
2022-12-12T00:57:35.618Z,19.20
2022-12-12T00:58:35.596Z,19.30
2022-12-12T00:59:35.601Z,19.40
2022-12-12T01:00:35.576Z,19.70
2022-12-12T01:01:35.654Z,19.50
2022-12-12T01:02:35.607Z,19.70
2022-12-12T01:03:35.540Z,19.80
2022-12-12T01:04:35.562Z,18.40
2022-12-12T01:05:35.539Z,18.70
2022-12-12T01:06:35.521Z,19.20
2022-12-12T01:07:35.512Z,18.60
2022-12-12T01:08:35.502Z,18.50
2022-12-12T01:09:35.512Z,18.30
2022-12-12T01:10:35.499Z,19.70
2022-12-12T01:11:36.463Z,19.20
2022-12-12T01:12:35.467Z,20.10
2022-12-12T01:13:35.452Z,19.80
2022-12-12T01:14:35.441Z,19.20
2022-12-12T01:15:35.501Z,19.30
2022-12-12T01:16:35.520Z,18.60
2022-12-12T01:17:35.402Z,19.80
2022-12-12T01:18:35.402Z,19.00
2022-12-12T01:19:35.395Z,19.40
2022-12-12T01:20:35.399Z,18.50
2022-12-12T01:21:35.380Z,18.90
2022-12-12T01:22:35.367Z,18.50
2022-12-12T01:23:35.359Z,18.10
2022-12-12T01:24:35.357Z,18.70
2022-12-12T01:25:35.327Z,18.40
2022-12-12T01:26:35.349Z,19.90
2022-12-12T01:27:35.325Z,18.30
2022-12-12T01:28:35.301Z,19.60
2022-12-12T01:29:35.300Z,18.60
2022-12-12T01:30:35.301Z,18.60
2022-12-12T01:31:35.404Z,18.10
2022-12-12T01:32:35.285Z,18.20
2022-12-12T01:33:35.269Z,20.00
2022-12-12T01:34:35.288Z,18.90
2022-12-12T01:35:35.230Z,18.90
2022-12-12T01:36:35.226Z,19.40
2022-12-12T01:37:35.216Z,19.00
2022-12-12T01:38:35.211Z,18.90
2022-12-12T01:39:35.223Z,18.50
2022-12-12T01:40:35.210Z,17.80
2022-12-12T01:41:35.178Z,18.20
2022-12-12T01:42:35.177Z,18.20
2022-12-12T01:43:35.162Z,17.90
2022-12-12T01:44:35.148Z,18.60
2022-12-12T01:45:35.160Z,18.30
2022-12-12T01:46:35.184Z,18.60
2022-12-12T01:47:35.115Z,18.10
2022-12-12T01:48:36.107Z,18.40
2022-12-12T01:49:36.143Z,18.20
2022-12-12T01:50:35.105Z,18.90
2022-12-12T01:51:35.083Z,18.80
2022-12-12T01:52:35.084Z,19.20
2022-12-12T01:53:35.072Z,19.30
2022-12-12T01:54:35.071Z,18.90
2022-12-12T01:55:35.049Z,18.50
2022-12-12T01:56:35.043Z,19.20
2022-12-12T01:57:35.046Z,19.30
2022-12-12T01:58:35.015Z,19.30
2022-12-12T01:59:35.010Z,18.30
2022-12-12T02:00:35.037Z,19.80
2022-12-12T02:01:34.998Z,19.70
2022-12-12T02:02:35.009Z,19.20
2022-12-12T02:03:34.966Z,19.30
2022-12-12T02:04:34.964Z,18.40
2022-12-12T02:05:34.958Z,18.40
2022-12-12T02:06:34.949Z,19.00
2022-12-12T02:07:34.944Z,20.30
2022-12-12T02:08:34.938Z,19.90
2022-12-12T02:09:34.974Z,18.60
2022-12-12T02:10:34.904Z,18.40
2022-12-12T02:11:34.898Z,18.40
2022-12-12T02:12:34.885Z,19.00
2022-12-12T02:13:34.873Z,19.60
2022-12-12T02:14:34.880Z,18.90
2022-12-12T02:15:34.880Z,19.10
2022-12-12T02:16:34.895Z,18.40
2022-12-12T02:17:34.857Z,18.70
2022-12-12T02:18:34.829Z,18.10
2022-12-12T02:19:34.834Z,18.50
2022-12-12T02:20:34.812Z,18.70
2022-12-12T02:21:34.793Z,19.10
2022-12-12T02:22:34.804Z,19.10
2022-12-12T02:23:34.773Z,19.00
2022-12-12T02:24:34.773Z,18.80
2022-12-12T02:25:34.778Z,18.60
2022-12-12T02:26:34.768Z,19.20
2022-12-12T02:27:34.748Z,18.30
2022-12-12T02:28:34.731Z,18.60
2022-12-12T02:29:34.730Z,18.20
2022-12-12T02:30:34.720Z,18.30
2022-12-12T02:31:34.746Z,18.30
2022-12-12T02:32:34.700Z,17.80
2022-12-12T02:33:34.683Z,18.30
2022-12-12T02:34:34.674Z,18.00
2022-12-12T02:35:34.670Z,18.10
2022-12-12T02:36:34.653Z,17.90
2022-12-12T02:37:34.670Z,18.30
2022-12-12T02:38:34.635Z,17.40
2022-12-12T02:39:34.621Z,18.80
2022-12-12T02:40:34.604Z,18.20
2022-12-12T02:41:34.601Z,18.40
2022-12-12T02:42:34.624Z,17.80
2022-12-12T02:43:34.595Z,17.60
2022-12-12T02:44:34.589Z,18.10
2022-12-12T02:45:34.553Z,18.10
2022-12-12T02:46:34.596Z,17.50
2022-12-12T02:47:34.549Z,18.80
2022-12-12T02:48:34.547Z,18.20
2022-12-12T02:49:34.529Z,18.50
2022-12-12T02:50:34.512Z,17.40
2022-12-12T02:51:34.502Z,18.00
2022-12-12T02:52:34.495Z,18.40
2022-12-12T02:53:34.495Z,17.80
2022-12-12T02:54:34.470Z,17.80
2022-12-12T02:55:36.565Z,17.20
2022-12-12T02:56:35.464Z,17.50
2022-12-12T02:57:34.468Z,17.40
2022-12-12T02:58:34.436Z,18.00
2022-12-12T02:59:34.446Z,17.00
2022-12-12T03:00:34.466Z,17.80
2022-12-12T03:01:34.455Z,17.50
2022-12-12T03:03:06.315Z,17.60
2022-12-12T03:03:34.393Z,17.30
2022-12-12T03:04:34.402Z,17.30
2022-12-12T03:05:34.383Z,18.30
2022-12-12T03:06:39.336Z,17.80
2022-12-12T03:07:36.348Z,19.10
2022-12-12T03:08:34.338Z,18.10
2022-12-12T03:09:34.331Z,19.10
2022-12-12T03:10:34.338Z,18.50
2022-12-12T03:11:34.334Z,18.30
2022-12-12T03:12:34.304Z,19.50
2022-12-12T03:13:34.285Z,18.70
2022-12-12T03:14:35.291Z,17.90
2022-12-12T03:15:34.308Z,20.10
2022-12-12T03:16:34.328Z,19.10
2022-12-12T03:17:34.249Z,18.60
2022-12-12T03:18:34.255Z,19.80
2022-12-12T03:19:34.239Z,19.10
2022-12-12T03:20:34.258Z,18.90
2022-12-12T03:21:34.241Z,19.00
2022-12-12T03:22:34.209Z,19.50
2022-12-12T03:23:34.208Z,18.70
2022-12-12T03:24:34.195Z,18.80
2022-12-12T03:25:34.179Z,18.50
2022-12-12T03:26:34.199Z,19.20
2022-12-12T03:27:34.165Z,18.60
2022-12-12T03:28:34.147Z,19.10
2022-12-12T03:29:34.134Z,19.00
2022-12-12T03:30:34.161Z,19.00
2022-12-12T03:31:34.137Z,19.60
2022-12-12T03:32:34.107Z,19.90
2022-12-12T03:33:34.107Z,19.90
2022-12-12T03:34:34.123Z,19.80
2022-12-12T03:35:34.076Z,20.00
2022-12-12T03:36:34.082Z,18.90
2022-12-12T03:37:34.062Z,19.70
2022-12-12T03:38:34.096Z,19.80
2022-12-12T03:39:34.067Z,19.10
2022-12-12T03:40:34.031Z,19.00
2022-12-12T03:41:34.038Z,19.10
2022-12-12T03:42:34.009Z,19.00
2022-12-12T03:43:34.033Z,18.70
2022-12-12T03:44:39.776Z,18.90
2022-12-12T03:45:35.050Z,20.10
2022-12-12T03:46:34.077Z,19.80
2022-12-12T03:47:33.976Z,18.70
2022-12-12T03:48:33.954Z,19.50
2022-12-12T03:49:33.971Z,19.70
2022-12-12T03:50:33.937Z,19.10
2022-12-12T03:51:33.935Z,19.80
2022-12-12T03:52:33.949Z,18.90
2022-12-12T03:53:33.913Z,19.20
2022-12-12T03:54:33.892Z,19.10
2022-12-12T03:55:33.915Z,20.20
2022-12-12T03:56:33.916Z,19.00
2022-12-12T03:57:33.874Z,19.30
2022-12-12T03:58:33.859Z,19.60
2022-12-12T03:59:33.875Z,19.40
2022-12-12T04:00:33.849Z,19.60
2022-12-12T04:01:33.902Z,18.80
2022-12-12T04:02:33.879Z,19.90
2022-12-12T04:03:33.843Z,20.80
2022-12-12T04:04:33.806Z,19.80
2022-12-12T04:05:33.793Z,20.10
2022-12-12T04:06:33.789Z,19.50
2022-12-12T04:07:33.774Z,19.60
2022-12-12T04:08:33.794Z,20.80
2022-12-12T04:09:33.799Z,20.20
2022-12-12T04:10:33.755Z,20.60
2022-12-12T04:11:33.743Z,19.90
2022-12-12T04:12:33.731Z,20.10
2022-12-12T04:13:33.721Z,20.80
2022-12-12T04:14:33.740Z,20.60
2022-12-12T04:15:33.695Z,20.40
2022-12-12T04:16:33.719Z,20.70
2022-12-12T04:17:33.680Z,19.80
2022-12-12T04:18:33.679Z,20.20
2022-12-12T04:19:33.708Z,21.00
2022-12-12T04:20:33.686Z,20.80
2022-12-12T04:21:33.643Z,21.00
2022-12-12T04:22:33.637Z,20.50
2022-12-12T04:23:33.666Z,21.80
2022-12-12T04:24:33.614Z,20.00
2022-12-12T04:25:33.663Z,21.80
2022-12-12T04:26:33.604Z,21.70
2022-12-12T04:27:33.600Z,21.90
2022-12-12T04:28:33.578Z,20.60
2022-12-12T04:29:33.578Z,20.90
2022-12-12T04:30:33.559Z,20.80
2022-12-12T04:31:33.601Z,20.50
2022-12-12T04:32:33.532Z,21.30
2022-12-12T04:33:33.523Z,21.70
2022-12-12T04:34:33.526Z,20.60
2022-12-12T04:35:33.509Z,20.20
2022-12-12T04:36:33.521Z,22.00
2022-12-12T04:37:33.490Z,20.40
2022-12-12T04:38:33.478Z,20.90
2022-12-12T04:39:33.476Z,20.70
2022-12-12T04:40:33.491Z,21.00
2022-12-12T04:41:33.455Z,22.60
2022-12-12T04:42:33.448Z,21.40
2022-12-12T04:43:33.434Z,21.90
2022-12-12T04:44:33.426Z,21.40
2022-12-12T04:45:33.486Z,21.60
2022-12-12T04:46:33.402Z,22.20
2022-12-12T04:47:33.383Z,20.80
2022-12-12T04:48:37.918Z,21.50
2022-12-12T04:49:34.431Z,21.20
2022-12-12T04:50:33.390Z,21.10
2022-12-12T04:51:33.369Z,22.00
2022-12-12T04:52:33.350Z,20.80
2022-12-12T04:53:33.357Z,20.90
2022-12-12T04:54:33.343Z,20.60
2022-12-12T04:55:33.314Z,21.70
2022-12-12T04:56:33.314Z,20.00
2022-12-12T04:57:33.294Z,20.00
2022-12-12T04:58:33.307Z,19.60
2022-12-12T04:59:33.281Z,19.80
2022-12-12T05:00:33.260Z,20.40
2022-12-12T05:01:33.309Z,19.80
2022-12-12T05:02:33.276Z,21.30
2022-12-12T05:03:33.238Z,20.70
2022-12-12T05:04:33.255Z,21.00
2022-12-12T05:05:33.226Z,20.70
2022-12-12T05:06:33.223Z,20.30
2022-12-12T05:07:39.278Z,21.10
2022-12-12T05:08:35.176Z,21.80
2022-12-12T05:09:33.188Z,20.80
2022-12-12T05:10:33.169Z,21.00
2022-12-12T05:11:33.151Z,21.10
2022-12-12T05:12:33.168Z,20.50
2022-12-12T05:13:33.142Z,21.10
2022-12-12T05:14:33.123Z,21.00
2022-12-12T05:15:33.121Z,22.50
2022-12-12T05:16:33.214Z,21.70
2022-12-12T05:17:33.121Z,21.80
2022-12-12T05:18:33.087Z,22.00
2022-12-12T05:19:33.110Z,21.10
2022-12-12T05:20:33.086Z,21.00
2022-12-12T05:21:33.066Z,21.40
2022-12-12T05:22:33.092Z,20.80
2022-12-12T05:23:34.815Z,22.00
2022-12-12T05:24:34.029Z,21.30
2022-12-12T05:25:33.020Z,21.90
2022-12-12T05:26:33.019Z,21.30
2022-12-12T05:27:33.041Z,22.00
2022-12-12T05:28:32.987Z,21.20
2022-12-12T05:29:32.979Z,22.30
2022-12-12T05:30:33.007Z,21.30
2022-12-12T05:31:32.967Z,21.90
2022-12-12T05:32:32.963Z,21.30
2022-12-12T05:33:32.971Z,22.40
2022-12-12T05:34:32.944Z,21.80
2022-12-12T05:35:32.920Z,22.30
2022-12-12T05:36:32.912Z,21.40
2022-12-12T05:37:32.912Z,21.30
2022-12-12T05:38:32.920Z,22.00
2022-12-12T05:39:32.910Z,21.30
2022-12-12T05:40:32.895Z,22.00
2022-12-12T05:41:32.900Z,21.70
2022-12-12T05:42:32.862Z,20.40
2022-12-12T05:43:32.852Z,20.40
2022-12-12T05:44:32.899Z,21.50
2022-12-12T05:45:32.831Z,20.70
2022-12-12T05:46:32.848Z,20.70
2022-12-12T05:47:32.815Z,20.70
2022-12-12T05:48:32.805Z,19.80
2022-12-12T05:49:32.802Z,20.60
2022-12-12T05:50:32.793Z,20.50
2022-12-12T05:51:32.809Z,20.20
2022-12-12T05:52:32.759Z,20.60
2022-12-12T05:53:41.996Z,19.50
2022-12-12T05:54:33.743Z,20.00
2022-12-12T05:55:32.732Z,20.80
2022-12-12T05:56:32.745Z,21.20
2022-12-12T05:57:32.715Z,21.20
2022-12-12T05:58:32.703Z,21.20
2022-12-12T05:59:32.707Z,19.30
2022-12-12T06:00:32.702Z,20.50
2022-12-12T06:01:32.721Z,20.90
2022-12-12T06:02:32.691Z,20.00
2022-12-12T06:03:32.667Z,20.10
2022-12-12T06:04:32.668Z,20.00
2022-12-12T06:05:32.640Z,20.00
2022-12-12T06:06:32.639Z,20.60
2022-12-12T06:07:32.616Z,21.30
2022-12-12T06:08:32.664Z,20.00
2022-12-12T06:09:32.645Z,20.50
2022-12-12T06:10:32.585Z,19.80
2022-12-12T06:11:32.581Z,21.40
2022-12-12T06:12:32.568Z,20.30
2022-12-12T06:13:32.567Z,20.00
2022-12-12T06:14:32.571Z,21.80
2022-12-12T06:15:32.597Z,20.80
2022-12-12T06:16:32.542Z,20.00
2022-12-12T06:17:33.584Z,20.70
2022-12-12T06:18:33.519Z,20.60
2022-12-12T06:19:32.504Z,20.90
2022-12-12T06:20:32.522Z,20.10
2022-12-12T06:21:32.491Z,20.10
2022-12-12T06:22:32.486Z,20.70
2022-12-12T06:23:32.469Z,21.00
2022-12-12T06:24:32.464Z,20.80
2022-12-12T06:25:32.464Z,20.40
2022-12-12T06:26:33.445Z,20.20
2022-12-12T06:27:32.430Z,20.00
2022-12-12T06:28:32.431Z,19.40
2022-12-12T06:29:32.422Z,19.60
2022-12-12T06:30:32.421Z,21.00
2022-12-12T06:31:32.614Z,18.60
2022-12-12T06:32:32.413Z,19.60
2022-12-12T06:33:32.379Z,18.80
2022-12-12T06:34:32.377Z,20.30
2022-12-12T06:35:32.370Z,21.10
2022-12-12T06:36:32.352Z,20.30
2022-12-12T06:37:33.364Z,19.60
2022-12-12T06:38:32.328Z,21.00
2022-12-12T06:39:32.319Z,19.70
2022-12-12T06:40:32.315Z,20.40
2022-12-12T06:41:32.297Z,22.60
2022-12-12T06:42:32.322Z,23.00
2022-12-12T06:43:32.280Z,21.40
2022-12-12T06:44:32.262Z,21.20
2022-12-12T06:45:32.267Z,21.70
2022-12-12T06:46:32.324Z,20.50
2022-12-12T06:47:32.250Z,21.00
2022-12-12T06:48:32.252Z,20.80
2022-12-12T06:49:32.262Z,22.30
2022-12-12T06:50:32.225Z,21.50
2022-12-12T06:51:32.214Z,22.10
2022-12-12T06:52:32.203Z,20.20
2022-12-12T06:53:32.181Z,20.80
2022-12-12T06:54:32.205Z,20.70
2022-12-12T06:55:32.169Z,21.00
2022-12-12T06:56:32.159Z,20.80
2022-12-12T06:57:32.155Z,20.30
2022-12-12T06:58:32.150Z,20.70
2022-12-12T06:59:32.139Z,20.10
2022-12-12T07:00:32.141Z,20.60
2022-12-12T07:01:32.129Z,20.20
2022-12-12T07:02:32.184Z,21.00
2022-12-12T07:03:32.090Z,21.00
2022-12-12T07:04:32.097Z,20.80
2022-12-12T07:05:32.094Z,21.90
2022-12-12T07:06:32.059Z,20.80
2022-12-12T07:07:32.048Z,21.00
2022-12-12T07:08:32.029Z,21.20
2022-12-12T07:09:32.031Z,21.20
2022-12-12T07:10:32.041Z,19.80
2022-12-12T07:11:32.013Z,21.80
2022-12-12T07:12:31.997Z,23.30
2022-12-12T07:13:31.990Z,23.10
2022-12-12T07:14:31.991Z,20.90
2022-12-12T07:15:32.048Z,21.90
2022-12-12T07:16:31.966Z,20.20
2022-12-12T07:17:31.981Z,19.30
2022-12-12T07:18:31.937Z,21.30
2022-12-12T07:19:31.937Z,20.10
2022-12-12T07:20:31.957Z,19.00
2022-12-12T07:21:31.911Z,19.60
2022-12-12T07:22:31.914Z,19.20
2022-12-12T07:23:31.894Z,20.10
2022-12-12T07:24:31.885Z,20.40
2022-12-12T07:25:31.873Z,20.00
2022-12-12T07:26:31.912Z,21.40
2022-12-12T07:27:31.855Z,20.00
2022-12-12T07:28:31.836Z,21.30
2022-12-12T07:29:31.881Z,20.50
2022-12-12T07:30:31.832Z,21.30
2022-12-12T07:31:31.865Z,20.90
2022-12-12T07:32:31.813Z,21.00
2022-12-12T07:33:42.652Z,21.20
2022-12-12T07:34:33.801Z,21.30
2022-12-12T07:35:31.784Z,21.80
2022-12-12T07:36:31.768Z,22.10
2022-12-12T07:37:31.782Z,21.60
2022-12-12T07:38:31.745Z,22.20
2022-12-12T07:39:31.790Z,21.90
2022-12-12T07:40:31.746Z,21.40
2022-12-12T07:41:31.781Z,21.50
2022-12-12T07:42:31.716Z,32.80
2022-12-12T07:43:33.193Z,29.70
2022-12-12T07:44:32.704Z,20.80
2022-12-12T07:45:31.694Z,22.10
2022-12-12T07:46:31.731Z,24.60
2022-12-12T07:47:31.684Z,30.10
2022-12-12T07:48:31.725Z,23.80
2022-12-12T07:49:31.675Z,25.40
2022-12-12T07:50:31.657Z,26.10
2022-12-12T07:51:31.626Z,26.70
2022-12-12T07:52:31.638Z,26.10
2022-12-12T07:53:31.640Z,23.50
2022-12-12T07:54:31.619Z,23.40
2022-12-12T07:55:31.602Z,29.70
2022-12-12T07:56:31.585Z,23.70
2022-12-12T07:57:31.573Z,25.20
2022-12-12T07:58:31.571Z,21.20
2022-12-12T07:59:31.578Z,21.20
2022-12-12T08:00:31.570Z,21.40
2022-12-12T08:01:31.651Z,22.20
2022-12-12T08:02:31.531Z,19.70
2022-12-12T08:03:31.515Z,20.60
2022-12-12T08:04:31.560Z,21.40
2022-12-12T08:05:32.518Z,22.20
2022-12-12T08:06:31.498Z,22.90
2022-12-12T08:07:31.482Z,25.60
2022-12-12T08:08:31.541Z,24.30
2022-12-12T08:09:31.480Z,23.80
2022-12-12T08:10:31.458Z,20.70
2022-12-12T08:11:31.524Z,21.40
2022-12-12T08:12:31.483Z,21.50
2022-12-12T08:13:31.429Z,22.20
2022-12-12T08:14:31.420Z,20.70
2022-12-12T08:15:31.404Z,20.80
2022-12-12T08:16:31.441Z,20.70
2022-12-12T08:17:31.415Z,19.70
2022-12-12T08:18:31.386Z,19.90
2022-12-12T08:19:31.379Z,19.90
2022-12-12T08:20:31.363Z,19.40
2022-12-12T08:21:31.357Z,19.70
2022-12-12T08:22:31.379Z,21.10
2022-12-12T08:23:31.341Z,20.70
2022-12-12T08:24:31.342Z,20.60
2022-12-12T08:25:31.322Z,18.80
2022-12-12T08:26:31.315Z,19.60
2022-12-12T08:27:31.328Z,19.70
2022-12-12T08:28:31.306Z,20.30
2022-12-12T08:29:31.289Z,20.50
2022-12-12T08:30:31.289Z,19.70
2022-12-12T08:31:31.291Z,20.30
2022-12-12T08:32:31.268Z,19.40
2022-12-12T08:33:31.223Z,18.60
2022-12-12T08:34:31.234Z,19.30
2022-12-12T08:35:31.242Z,19.40
2022-12-12T08:36:31.255Z,19.50
2022-12-12T08:37:31.199Z,18.20
2022-12-12T08:38:31.199Z,18.80
2022-12-12T08:39:31.171Z,19.10
2022-12-12T08:40:31.242Z,19.30
2022-12-12T08:41:31.162Z,18.20
2022-12-12T08:42:31.152Z,19.20
2022-12-12T08:43:31.147Z,18.70
2022-12-12T08:44:31.140Z,18.90
2022-12-12T08:45:31.129Z,19.80
2022-12-12T08:46:31.179Z,19.20
2022-12-12T08:47:31.119Z,19.40
2022-12-12T08:48:31.106Z,19.10
2022-12-12T08:49:31.093Z,18.90
2022-12-12T08:50:31.089Z,18.80
2022-12-12T08:51:31.117Z,19.90
2022-12-12T08:52:31.074Z,18.10
2022-12-12T08:53:31.057Z,18.70
2022-12-12T08:54:31.056Z,19.50
2022-12-12T08:55:31.037Z,19.90
2022-12-12T08:56:31.031Z,19.90
2022-12-12T08:57:31.008Z,19.90
2022-12-12T08:58:30.993Z,19.80
2022-12-12T08:59:31.028Z,20.60
2022-12-12T09:00:30.988Z,19.80
2022-12-12T09:01:31.041Z,19.50
2022-12-12T09:02:31.030Z,19.20
2022-12-12T09:04:02.870Z,18.80
2022-12-12T09:04:30.978Z,19.20
2022-12-12T09:05:30.956Z,18.70
2022-12-12T09:06:30.931Z,19.90
2022-12-12T09:07:30.931Z,19.20
2022-12-12T09:08:31.018Z,20.60
2022-12-12T09:09:30.933Z,20.00
2022-12-12T09:10:30.997Z,20.60
2022-12-12T09:11:30.880Z,20.50
2022-12-12T09:12:30.873Z,20.70
2022-12-12T09:13:30.870Z,20.30
2022-12-12T09:14:30.892Z,19.90
2022-12-12T09:15:30.866Z,20.60
2022-12-12T09:16:30.944Z,19.10
2022-12-12T09:17:30.823Z,18.80
2022-12-12T09:18:30.923Z,20.00
2022-12-12T09:19:30.814Z,20.70
2022-12-12T09:20:30.807Z,20.40
2022-12-12T09:21:30.785Z,19.70
2022-12-12T09:22:30.779Z,20.90
2022-12-12T09:23:30.779Z,21.10
2022-12-12T09:24:30.744Z,19.10
2022-12-12T09:25:30.739Z,22.30
2022-12-12T09:26:30.746Z,22.00
2022-12-12T09:27:30.739Z,21.80
2022-12-12T09:28:30.711Z,23.10
2022-12-12T09:29:30.715Z,21.70
2022-12-12T09:30:30.699Z,22.40
2022-12-12T09:31:30.764Z,22.90
2022-12-12T09:32:30.708Z,21.40
2022-12-12T09:33:30.687Z,22.20
2022-12-12T09:34:30.671Z,21.90
2022-12-12T09:35:30.663Z,21.00
2022-12-12T09:36:30.628Z,23.50
2022-12-12T09:37:30.628Z,22.50
2022-12-12T09:38:30.659Z,23.70
2022-12-12T09:39:30.615Z,23.50
2022-12-12T09:40:30.616Z,23.30
2022-12-12T09:41:30.609Z,22.70
2022-12-12T09:42:30.568Z,22.00
2022-12-12T09:43:30.573Z,22.00
2022-12-12T09:44:30.579Z,22.50
2022-12-12T09:45:30.582Z,22.40
2022-12-12T09:46:30.532Z,22.20
2022-12-12T09:47:30.517Z,21.90
2022-12-12T09:48:30.510Z,21.40
2022-12-12T09:49:30.562Z,21.80
2022-12-12T09:50:30.519Z,22.90
2022-12-12T09:51:30.481Z,24.60
2022-12-12T09:52:31.331Z,23.40
2022-12-12T09:53:31.467Z,24.60
2022-12-12T09:54:30.553Z,26.10
2022-12-12T09:55:30.633Z,24.70
2022-12-12T09:56:30.438Z,26.20
2022-12-12T09:57:30.424Z,26.60
2022-12-12T09:58:30.483Z,28.20
2022-12-12T09:59:30.410Z,28.60
2022-12-12T10:00:30.456Z,27.80
2022-12-12T10:01:30.509Z,27.20
2022-12-12T10:02:30.433Z,28.10
2022-12-12T10:03:30.463Z,27.30
2022-12-12T10:04:30.422Z,28.70
2022-12-12T10:05:30.500Z,28.80
2022-12-12T10:06:38.225Z,29.10
2022-12-12T10:07:32.416Z,27.70
2022-12-12T10:08:30.377Z,27.20
2022-12-12T10:09:30.327Z,27.30
2022-12-12T10:10:30.310Z,26.80
2022-12-12T10:11:30.309Z,23.60
2022-12-12T10:12:30.334Z,24.30
2022-12-12T10:13:30.275Z,25.20
2022-12-12T10:14:30.268Z,24.70
2022-12-12T10:15:30.265Z,24.10
2022-12-12T10:16:30.321Z,24.30
2022-12-12T10:17:30.235Z,23.50
2022-12-12T10:18:30.221Z,21.30
2022-12-12T10:19:30.224Z,23.60
2022-12-12T10:20:30.304Z,21.70
2022-12-12T10:21:30.225Z,22.30
2022-12-12T10:22:30.248Z,23.40
2022-12-12T10:23:30.215Z,23.00
2022-12-12T10:24:30.301Z,22.80
2022-12-12T10:25:30.179Z,22.70
2022-12-12T10:26:30.163Z,23.00
2022-12-12T10:27:30.256Z,21.50
2022-12-12T10:28:30.149Z,24.10
2022-12-12T10:29:30.115Z,27.40
2022-12-12T10:30:30.217Z,24.30
2022-12-12T10:31:31.204Z,25.80
2022-12-12T10:32:30.099Z,24.50
2022-12-12T10:33:30.121Z,24.80
2022-12-12T10:34:30.067Z,23.40
2022-12-12T10:35:30.576Z,23.30
2022-12-12T10:36:30.143Z,25.30
2022-12-12T10:37:30.041Z,24.40
2022-12-12T10:38:30.028Z,24.10
2022-12-12T10:39:30.114Z,25.90
2022-12-12T10:40:30.037Z,23.30
2022-12-12T10:41:30.005Z,24.20
2022-12-12T10:42:30.117Z,24.80
2022-12-12T10:43:29.977Z,25.10
2022-12-12T10:44:29.975Z,24.40
2022-12-12T10:45:30.133Z,25.30
2022-12-12T10:46:30.084Z,24.10
2022-12-12T10:47:29.948Z,25.80
2022-12-12T10:48:29.968Z,24.80
2022-12-12T10:49:29.927Z,22.70
2022-12-12T10:50:29.925Z,23.50
2022-12-12T10:51:29.929Z,24.80
2022-12-12T10:52:29.974Z,24.30
2022-12-12T10:53:29.891Z,24.20
2022-12-12T10:54:29.875Z,24.00
2022-12-12T10:55:30.943Z,26.40
2022-12-12T10:56:29.881Z,22.90
2022-12-12T10:57:30.860Z,22.50
2022-12-12T10:58:29.986Z,22.80
2022-12-12T10:59:29.844Z,20.70
2022-12-12T11:00:29.823Z,24.70
2022-12-12T11:02:00.650Z,25.50
2022-12-12T11:02:31.926Z,25.90
2022-12-12T11:03:29.958Z,26.40
2022-12-12T11:04:29.906Z,23.40
2022-12-12T11:05:29.812Z,24.70
2022-12-12T11:06:29.771Z,25.00
2022-12-12T11:07:29.783Z,26.40
2022-12-12T11:08:29.800Z,26.10
2022-12-12T11:09:29.838Z,25.90
2022-12-12T11:10:33.928Z,28.50
2022-12-12T11:11:29.716Z,27.80
2022-12-12T11:12:29.762Z,26.70
2022-12-12T11:13:29.708Z,26.60
2022-12-12T11:14:29.713Z,32.40
2022-12-12T11:15:29.687Z,29.70
2022-12-12T11:16:29.769Z,31.30
2022-12-12T11:17:29.684Z,29.50
2022-12-12T11:18:29.876Z,28.00
2022-12-12T11:19:29.744Z,27.60
2022-12-12T11:20:29.746Z,33.50
2022-12-12T11:21:29.682Z,28.10
2022-12-12T11:22:29.703Z,28.00
2022-12-12T11:23:29.646Z,34.40
2022-12-12T11:24:29.646Z,31.70
2022-12-12T11:25:29.594Z,27.60
2022-12-12T11:26:29.580Z,26.40
2022-12-12T11:27:29.754Z,27.10
2022-12-12T11:28:29.621Z,25.80
2022-12-12T11:29:29.580Z,25.60
2022-12-12T11:30:29.621Z,26.10
2022-12-12T11:31:29.572Z,27.20
2022-12-12T11:32:29.590Z,28.20
2022-12-12T11:33:29.511Z,27.10
2022-12-12T11:34:29.527Z,27.40
2022-12-12T11:35:29.534Z,29.10
2022-12-12T11:36:29.508Z,25.20
2022-12-12T11:37:29.488Z,25.50
2022-12-12T11:38:29.485Z,26.30
2022-12-12T11:39:29.503Z,26.40
2022-12-12T11:40:29.461Z,26.30
2022-12-12T11:41:29.439Z,26.10
2022-12-12T11:42:29.436Z,24.60
2022-12-12T11:43:29.423Z,25.20
2022-12-12T11:44:29.429Z,25.50
2022-12-12T11:45:29.473Z,21.60
2022-12-12T11:46:29.398Z,26.40
2022-12-12T11:47:29.374Z,24.70
2022-12-12T11:48:29.373Z,25.10
2022-12-12T11:49:29.391Z,26.80
2022-12-12T11:50:29.363Z,26.40
2022-12-12T11:51:29.361Z,25.70
2022-12-12T11:52:29.370Z,24.80
2022-12-12T11:53:29.327Z,26.30
2022-12-12T11:54:29.322Z,24.10
2022-12-12T11:55:29.296Z,23.60
2022-12-12T11:56:29.315Z,24.50
2022-12-12T11:57:29.325Z,24.90
2022-12-12T11:58:29.261Z,24.40
2022-12-12T11:59:29.282Z,23.60
2022-12-12T12:00:29.249Z,24.00
2022-12-12T12:01:29.237Z,24.20
2022-12-12T12:02:29.275Z,23.50
2022-12-12T12:03:29.296Z,24.80
2022-12-12T12:04:29.241Z,24.70
2022-12-12T12:05:29.254Z,24.90
2022-12-12T12:06:29.198Z,24.00
2022-12-12T12:07:29.205Z,22.60
2022-12-12T12:08:29.222Z,23.90
2022-12-12T12:09:29.175Z,24.90
2022-12-12T12:10:29.158Z,24.80
2022-12-12T12:11:29.151Z,24.50
2022-12-12T12:12:29.161Z,25.20
2022-12-12T12:13:29.162Z,24.10
2022-12-12T12:14:29.113Z,26.40
2022-12-12T12:15:29.114Z,25.80
2022-12-12T12:16:29.238Z,25.20
2022-12-12T12:17:29.111Z,24.90
2022-12-12T12:18:29.072Z,23.70
2022-12-12T12:19:29.098Z,22.80
2022-12-12T12:20:29.055Z,23.10
2022-12-12T12:21:29.042Z,22.70
2022-12-12T12:22:29.069Z,22.40
2022-12-12T12:23:29.037Z,23.30
2022-12-12T12:24:29.035Z,21.90
2022-12-12T12:25:29.005Z,21.80
2022-12-12T12:26:29.081Z,23.30
2022-12-12T12:27:29.017Z,23.80
2022-12-12T12:28:29.007Z,23.40
2022-12-12T12:29:28.965Z,22.90
2022-12-12T12:30:29.061Z,21.00
2022-12-12T12:31:28.949Z,21.40
2022-12-12T12:32:28.943Z,23.10
2022-12-12T12:33:28.936Z,20.90
2022-12-12T12:34:28.945Z,22.50
2022-12-12T12:35:28.942Z,22.80
2022-12-12T12:36:28.907Z,23.70
2022-12-12T12:37:28.896Z,22.00
2022-12-12T12:38:28.887Z,23.40
2022-12-12T12:39:28.881Z,22.50
2022-12-12T12:40:28.855Z,21.80
2022-12-12T12:41:28.877Z,22.30
2022-12-12T12:42:28.869Z,21.70
2022-12-12T12:43:28.886Z,21.10
2022-12-12T12:44:28.823Z,21.60
2022-12-12T12:45:28.825Z,20.70
2022-12-12T12:46:28.893Z,22.60
2022-12-12T12:47:28.865Z,20.30
2022-12-12T12:48:28.941Z,20.60
2022-12-12T12:49:28.783Z,21.30
2022-12-12T12:50:28.772Z,21.00
2022-12-12T12:51:28.768Z,22.10
2022-12-12T12:52:28.788Z,20.60